createdAt,value
2019-03-27T00:00:28.906Z,0
2019-03-27T00:01:39.030Z,0
2019-03-27T00:02:49.148Z,0
2019-03-27T00:03:59.278Z,0
2019-03-27T00:05:09.389Z,0
2019-03-27T00:06:19.159Z,0
2019-03-27T00:07:29.298Z,0
2019-03-27T00:08:39.156Z,0
2019-03-27T00:09:49.254Z,0
2019-03-27T00:10:59.354Z,0
2019-03-27T00:12:09.509Z,0
2019-03-27T00:13:19.622Z,0
2019-03-27T00:14:29.751Z,0
2019-03-27T00:15:39.834Z,0
2019-03-27T00:16:49.684Z,0
2019-03-27T00:17:59.933Z,0
2019-03-27T00:19:09.798Z,0
2019-03-27T00:20:19.923Z,0
2019-03-27T00:21:30.032Z,0
2019-03-27T00:22:40.130Z,0
2019-03-27T00:23:50.248Z,0
2019-03-27T00:25:00.390Z,0
2019-03-27T00:26:10.529Z,0
2019-03-27T00:27:20.644Z,0
2019-03-27T00:28:30.754Z,0
2019-03-27T00:29:40.580Z,0
2019-03-27T00:30:50.692Z,0
2019-03-27T00:32:00.791Z,0
2019-03-27T00:33:10.944Z,0
2019-03-27T00:34:21.054Z,0
2019-03-27T00:35:31.158Z,0
2019-03-27T00:36:41.262Z,0
2019-03-27T00:37:51.391Z,0
2019-03-27T00:39:01.499Z,0
2019-03-27T00:40:11.676Z,0
2019-03-27T00:41:21.853Z,0
2019-03-27T00:42:31.985Z,0
2019-03-27T00:43:42.368Z,0
2019-03-27T00:44:52.472Z,0
2019-03-27T00:46:02.585Z,0
2019-03-27T00:47:12.720Z,0
2019-03-27T00:48:22.858Z,0
2019-03-27T00:49:32.974Z,0
2019-03-27T00:50:43.097Z,0
2019-03-27T00:51:53.260Z,0
2019-03-27T00:53:03.363Z,0
2019-03-27T00:54:12.884Z,0
2019-03-27T00:55:23.208Z,0
2019-03-27T00:56:33.356Z,0
2019-03-27T00:57:43.456Z,0
2019-03-27T00:58:53.621Z,0
2019-03-27T01:00:03.765Z,0
2019-03-27T01:01:13.982Z,0
2019-03-27T01:02:24.094Z,0
2019-03-27T01:03:34.232Z,0
2019-03-27T01:04:44.340Z,0
2019-03-27T01:05:54.441Z,0
2019-03-27T01:07:04.540Z,0
2019-03-27T01:08:14.295Z,0
2019-03-27T01:09:24.413Z,0
2019-03-27T01:10:34.533Z,0
2019-03-27T01:11:44.682Z,0
2019-03-27T01:12:54.798Z,0
2019-03-27T01:14:04.922Z,0
2019-03-27T01:15:15.063Z,0
2019-03-27T01:16:25.185Z,0
2019-03-27T01:17:35.308Z,0
2019-03-27T01:18:45.418Z,0
2019-03-27T01:19:55.532Z,0
2019-03-27T01:21:05.386Z,0
2019-03-27T01:22:15.731Z,0
2019-03-27T01:23:25.625Z,0
2019-03-27T01:24:35.727Z,0
2019-03-27T01:25:45.851Z,0
2019-03-27T01:26:55.992Z,0
2019-03-27T01:28:06.105Z,0
2019-03-27T01:29:16.293Z,0
2019-03-27T01:30:26.396Z,0
2019-03-27T01:31:36.496Z,0
2019-03-27T01:32:46.601Z,0
2019-03-27T01:33:56.457Z,0
2019-03-27T01:35:06.623Z,0
2019-03-27T01:36:16.477Z,0
2019-03-27T01:37:26.605Z,0
2019-03-27T01:38:36.780Z,0
2019-03-27T01:39:46.920Z,0
2019-03-27T01:40:57.052Z,0
2019-03-27T01:42:07.153Z,0
2019-03-27T01:43:17.336Z,0
2019-03-27T01:44:27.450Z,0
2019-03-27T01:45:37.551Z,0
2019-03-27T01:47:00.277Z,0
2019-03-27T01:48:10.393Z,0
2019-03-27T01:49:20.504Z,0
2019-03-27T01:50:30.598Z,0
2019-03-27T01:51:40.456Z,0
2019-03-27T01:52:50.594Z,0
2019-03-27T01:54:00.346Z,0
2019-03-27T01:55:10.479Z,0
2019-03-27T01:56:20.656Z,0
2019-03-27T01:57:30.758Z,0
2019-03-27T01:58:40.615Z,0
2019-03-27T01:59:50.751Z,0
2019-03-27T02:01:01.027Z,0
2019-03-27T02:02:11.170Z,0
2019-03-27T02:03:21.392Z,0
2019-03-27T02:04:31.524Z,0
2019-03-27T02:05:41.625Z,0
2019-03-27T02:06:51.491Z,0
2019-03-27T02:08:01.590Z,0
2019-03-27T02:09:11.709Z,0
2019-03-27T02:10:21.875Z,0
2019-03-27T02:11:31.990Z,0
2019-03-27T02:12:42.113Z,0
2019-03-27T02:13:52.229Z,0
2019-03-27T02:15:02.341Z,0
2019-03-27T02:16:14.626Z,0
2019-03-27T02:17:24.740Z,0
2019-03-27T02:18:34.861Z,0
2019-03-27T02:19:45.074Z,0
2019-03-27T02:20:55.183Z,0
2019-03-27T02:22:05.301Z,0
2019-03-27T02:23:15.421Z,0
2019-03-27T02:24:25.536Z,0
2019-03-27T02:25:35.642Z,0
2019-03-27T02:26:45.742Z,0
2019-03-27T02:27:56.826Z,0
2019-03-27T02:29:06.937Z,0
2019-03-27T02:30:17.184Z,0
2019-03-27T02:31:27.448Z,0
2019-03-27T02:32:37.606Z,0
2019-03-27T02:33:47.733Z,0
2019-03-27T02:34:57.871Z,0
2019-03-27T02:36:08.287Z,0
2019-03-27T02:37:18.426Z,0
2019-03-27T02:38:28.556Z,0
2019-03-27T02:39:38.901Z,0
2019-03-27T02:40:49.079Z,0
2019-03-27T02:41:59.213Z,0
2019-03-27T02:43:09.332Z,0
2019-03-27T02:44:19.466Z,0
2019-03-27T02:45:29.595Z,0
2019-03-27T02:46:39.744Z,0
2019-03-27T02:47:49.886Z,0
2019-03-27T02:49:00.019Z,0
2019-03-27T02:50:10.149Z,0
2019-03-27T02:51:20.269Z,0
2019-03-27T02:52:30.634Z,0
2019-03-27T02:53:40.891Z,0
2019-03-27T02:54:51.030Z,0
2019-03-27T02:56:01.204Z,0
2019-03-27T02:57:11.356Z,0
2019-03-27T02:58:21.465Z,0
2019-03-27T02:59:31.583Z,0
2019-03-27T03:00:41.707Z,0
2019-03-27T03:01:55.227Z,0
2019-03-27T03:03:05.006Z,0
2019-03-27T03:04:15.114Z,0
2019-03-27T03:05:25.420Z,0
2019-03-27T03:06:35.544Z,0
2019-03-27T03:07:45.711Z,0
2019-03-27T03:08:55.825Z,0
2019-03-27T03:10:05.998Z,0
2019-03-27T03:11:16.139Z,0
2019-03-27T03:12:26.257Z,0
2019-03-27T03:13:36.363Z,0
2019-03-27T03:14:46.493Z,0
2019-03-27T03:15:56.377Z,0
2019-03-27T03:17:06.548Z,0
2019-03-27T03:18:16.688Z,0
2019-03-27T03:19:26.596Z,0
2019-03-27T03:20:36.729Z,0
2019-03-27T03:21:46.893Z,0
2019-03-27T03:22:57.026Z,0
2019-03-27T03:24:07.292Z,0
2019-03-27T03:25:17.425Z,0
2019-03-27T03:26:27.533Z,0
2019-03-27T03:27:37.677Z,0
2019-03-27T03:28:47.803Z,0
2019-03-27T03:29:57.930Z,0
2019-03-27T03:31:08.261Z,0
2019-03-27T03:32:18.145Z,0
2019-03-27T03:33:28.318Z,0
2019-03-27T03:34:38.225Z,0
2019-03-27T03:35:48.448Z,0
2019-03-27T03:36:58.576Z,0
2019-03-27T03:38:08.703Z,0
2019-03-27T03:39:18.836Z,0
2019-03-27T03:40:28.986Z,0
2019-03-27T03:41:39.102Z,0
2019-03-27T03:42:49.308Z,0
2019-03-27T03:43:59.490Z,0
2019-03-27T03:45:09.638Z,0
2019-03-27T03:46:19.802Z,0
2019-03-27T03:47:29.686Z,0
2019-03-27T03:48:39.801Z,0
2019-03-27T03:49:49.952Z,0
2019-03-27T03:51:00.095Z,0
2019-03-27T03:52:10.291Z,0
2019-03-27T03:53:20.601Z,0
2019-03-27T03:54:30.937Z,0
2019-03-27T03:55:41.056Z,0
2019-03-27T03:56:51.195Z,0
2019-03-27T03:58:01.327Z,0
2019-03-27T03:59:11.434Z,0
2019-03-27T04:00:21.415Z,0
2019-03-27T04:01:31.552Z,0
2019-03-27T04:02:41.684Z,0
2019-03-27T04:03:51.815Z,0
2019-03-27T04:05:01.943Z,0
2019-03-27T04:06:12.084Z,0
2019-03-27T04:07:21.962Z,0
2019-03-27T04:08:32.111Z,0
2019-03-27T04:09:42.242Z,0
2019-03-27T04:10:52.577Z,0
2019-03-27T04:12:02.804Z,0
2019-03-27T04:13:12.912Z,0
2019-03-27T04:14:23.144Z,0
2019-03-27T04:15:33.254Z,0
2019-03-27T04:16:43.383Z,0
2019-03-27T04:17:53.507Z,0
2019-03-27T04:19:03.655Z,0
2019-03-27T04:20:13.877Z,0
2019-03-27T04:21:26.912Z,0
2019-03-27T04:22:37.104Z,0
2019-03-27T04:23:47.221Z,0
2019-03-27T04:24:57.335Z,0
2019-03-27T04:26:17.290Z,0
2019-03-27T04:27:27.407Z,0
2019-03-27T04:28:37.557Z,0
2019-03-27T04:29:47.728Z,0
2019-03-27T04:30:57.896Z,4
2019-03-27T04:32:08.030Z,0
2019-03-27T04:33:18.197Z,0
2019-03-27T04:34:28.323Z,4
2019-03-27T04:35:38.086Z,0
2019-03-27T04:36:48.187Z,4
2019-03-27T04:37:58.311Z,4
2019-03-27T04:39:08.474Z,4
2019-03-27T04:40:18.618Z,4
2019-03-27T04:41:28.743Z,4
2019-03-27T04:42:38.877Z,8
2019-03-27T04:43:49.007Z,8
2019-03-27T04:44:59.128Z,12
2019-03-27T04:46:09.246Z,8
2019-03-27T04:47:33.843Z,12
2019-03-27T04:48:43.983Z,16
2019-03-27T04:49:54.084Z,16
2019-03-27T04:51:04.254Z,20
2019-03-27T04:52:14.372Z,24
2019-03-27T04:53:24.482Z,28
2019-03-27T04:54:34.594Z,36
2019-03-27T04:55:44.730Z,44
2019-03-27T04:56:54.828Z,56
2019-03-27T04:58:04.946Z,68
2019-03-27T04:59:16.213Z,76
2019-03-27T05:00:25.583Z,84
2019-03-27T05:01:35.701Z,92
2019-03-27T05:02:45.566Z,100
2019-03-27T05:03:55.776Z,104
2019-03-27T05:05:05.899Z,112
2019-03-27T05:06:16.225Z,120
2019-03-27T05:07:26.343Z,132
2019-03-27T05:08:36.514Z,144
2019-03-27T05:09:46.649Z,160
2019-03-27T05:10:56.774Z,172
2019-03-27T05:12:06.931Z,184
2019-03-27T05:13:17.039Z,212
2019-03-27T05:14:27.156Z,236
2019-03-27T05:15:37.277Z,260
2019-03-27T05:16:47.402Z,284
2019-03-27T05:17:57.507Z,300
2019-03-27T05:19:07.610Z,296
2019-03-27T05:20:17.789Z,288
2019-03-27T05:21:27.908Z,296
2019-03-27T05:22:37.661Z,340
2019-03-27T05:23:47.784Z,360
2019-03-27T05:24:57.894Z,364
2019-03-27T05:26:08.125Z,380
2019-03-27T05:27:18.235Z,400
2019-03-27T05:28:28.342Z,460
2019-03-27T05:29:38.455Z,520
2019-03-27T05:30:48.563Z,524
2019-03-27T05:31:58.691Z,536
2019-03-27T05:33:08.808Z,556
2019-03-27T05:34:18.951Z,560
2019-03-27T05:35:29.068Z,592
2019-03-27T05:36:38.952Z,636
2019-03-27T05:37:49.057Z,676
2019-03-27T05:38:59.166Z,688
2019-03-27T05:40:09.292Z,700
2019-03-27T05:41:19.413Z,720
2019-03-27T05:42:29.523Z,752
2019-03-27T05:43:39.640Z,760
2019-03-27T05:44:49.504Z,748
2019-03-27T05:45:59.616Z,748
2019-03-27T05:47:09.726Z,776
2019-03-27T05:48:19.868Z,788
2019-03-27T05:49:30.000Z,820
2019-03-27T05:50:40.138Z,880
2019-03-27T05:51:50.247Z,904
2019-03-27T05:53:00.380Z,872
2019-03-27T05:54:10.494Z,824
2019-03-27T05:55:20.627Z,812
2019-03-27T05:56:30.753Z,860
2019-03-27T05:57:40.896Z,856
2019-03-27T05:58:51.009Z,916
2019-03-27T06:00:01.131Z,968
2019-03-27T06:01:11.239Z,1088
2019-03-27T06:02:21.353Z,1252
2019-03-27T06:03:31.506Z,1408
2019-03-27T06:04:41.626Z,1476
2019-03-27T06:05:51.752Z,1520
2019-03-27T06:07:01.853Z,1528
2019-03-27T06:08:11.972Z,1520
2019-03-27T06:09:22.153Z,1500
2019-03-27T06:10:32.251Z,1456
2019-03-27T06:11:42.371Z,1440
2019-03-27T06:12:52.489Z,1468
2019-03-27T06:14:02.615Z,1528
2019-03-27T06:15:12.741Z,1584
2019-03-27T06:16:22.873Z,1668
2019-03-27T06:17:32.998Z,1708
2019-03-27T06:18:43.105Z,1680
2019-03-27T06:19:53.234Z,1652
2019-03-27T06:21:03.339Z,1696
2019-03-27T06:22:15.026Z,1752
2019-03-27T06:23:25.275Z,1844
2019-03-27T06:24:35.384Z,1896
2019-03-27T06:25:45.517Z,2028
2019-03-27T06:26:55.633Z,2160
2019-03-27T06:28:05.753Z,2276
2019-03-27T06:29:18.453Z,2356
2019-03-27T06:30:28.568Z,2424
2019-03-27T06:31:38.690Z,2500
2019-03-27T06:32:48.799Z,2548
2019-03-27T06:33:58.927Z,2568
2019-03-27T06:35:09.059Z,2560
2019-03-27T06:36:19.173Z,2520
2019-03-27T06:37:29.281Z,2432
2019-03-27T06:38:39.492Z,2432
2019-03-27T06:39:49.599Z,2460
2019-03-27T06:40:59.719Z,2396
2019-03-27T06:42:09.871Z,2452
2019-03-27T06:43:19.993Z,2552
2019-03-27T06:44:30.113Z,2632
2019-03-27T06:45:40.239Z,2772
2019-03-27T06:46:50.359Z,2608
2019-03-27T06:48:00.469Z,2416
2019-03-27T06:49:10.582Z,2688
2019-03-27T06:50:20.646Z,2728
2019-03-27T06:51:44.633Z,2916
2019-03-27T06:52:54.750Z,2792
2019-03-27T06:54:04.863Z,2788
2019-03-27T06:55:14.958Z,3140
2019-03-27T06:56:25.069Z,3256
2019-03-27T06:57:35.180Z,3268
2019-03-27T06:58:58.708Z,3392
2019-03-27T07:00:08.853Z,3484
2019-03-27T07:01:18.989Z,3568
2019-03-27T07:02:31.362Z,3676
2019-03-27T07:03:41.496Z,3768
2019-03-27T07:04:51.614Z,3824
2019-03-27T07:06:01.744Z,3888
2019-03-27T07:07:11.894Z,4000
2019-03-27T07:08:22.018Z,4164
2019-03-27T07:09:32.160Z,4328
2019-03-27T07:10:42.282Z,4424
2019-03-27T07:11:52.392Z,4484
2019-03-27T07:13:02.514Z,4588
2019-03-27T07:14:12.634Z,4724
2019-03-27T07:15:22.751Z,4824
2019-03-27T07:16:32.864Z,4896
2019-03-27T07:17:43.017Z,4960
2019-03-27T07:18:53.162Z,5020
2019-03-27T07:20:03.273Z,5120
2019-03-27T07:21:13.388Z,5288
2019-03-27T07:22:23.501Z,5444
2019-03-27T07:23:33.612Z,5660
2019-03-27T07:24:43.726Z,5864
2019-03-27T07:25:53.911Z,6072
2019-03-27T07:27:04.035Z,6320
2019-03-27T07:28:14.185Z,6552
2019-03-27T07:29:26.420Z,6672
2019-03-27T07:30:36.560Z,6648
2019-03-27T07:31:47.769Z,6504
2019-03-27T07:32:57.888Z,6480
2019-03-27T07:34:08.005Z,6524
2019-03-27T07:35:18.132Z,6692
2019-03-27T07:36:28.275Z,7004
2019-03-27T07:37:38.378Z,7300
2019-03-27T07:38:48.158Z,7640
2019-03-27T07:39:58.260Z,8032
2019-03-27T07:41:08.385Z,8140
2019-03-27T07:42:18.522Z,8128
2019-03-27T07:43:28.640Z,8044
2019-03-27T07:44:38.781Z,8112
2019-03-27T07:45:48.893Z,8164
2019-03-27T07:46:59.013Z,8260
2019-03-27T07:48:09.160Z,8052
2019-03-27T07:49:19.285Z,8504
2019-03-27T07:50:29.406Z,6872
2019-03-27T07:51:39.518Z,7128
2019-03-27T07:52:49.643Z,7936
2019-03-27T07:53:59.750Z,6420
2019-03-27T07:55:23.448Z,6448
2019-03-27T07:56:33.577Z,6356
2019-03-27T07:57:43.717Z,6952
2019-03-27T07:58:53.846Z,8060
2019-03-27T08:00:07.547Z,8112
2019-03-27T08:01:17.748Z,7332
2019-03-27T08:02:27.901Z,8224
2019-03-27T08:03:38.035Z,8680
2019-03-27T08:04:48.182Z,7896
2019-03-27T08:05:58.319Z,8892
2019-03-27T08:07:08.455Z,9076
2019-03-27T08:08:18.574Z,8420
2019-03-27T08:09:30.402Z,9364
2019-03-27T08:10:40.518Z,9956
2019-03-27T08:11:50.650Z,9056
2019-03-27T08:13:00.816Z,9008
2019-03-27T08:14:10.950Z,7720
2019-03-27T08:15:21.077Z,8372
2019-03-27T08:16:31.202Z,9192
2019-03-27T08:17:41.385Z,10128
2019-03-27T08:18:51.507Z,10048
2019-03-27T08:20:14.640Z,11340
2019-03-27T08:21:24.754Z,11740
2019-03-27T08:22:34.868Z,11964
2019-03-27T08:23:44.999Z,12588
2019-03-27T08:24:55.118Z,12576
2019-03-27T08:26:05.274Z,12968
2019-03-27T08:27:17.107Z,13688
2019-03-27T08:28:27.249Z,14016
2019-03-27T08:29:37.379Z,13828
2019-03-27T08:30:47.504Z,12840
2019-03-27T08:31:57.693Z,12888
2019-03-27T08:33:07.808Z,11672
2019-03-27T08:34:18.040Z,12240
2019-03-27T08:35:28.175Z,13848
2019-03-27T08:36:38.301Z,15136
2019-03-27T08:37:48.425Z,14784
2019-03-27T08:38:58.584Z,11880
2019-03-27T08:40:08.708Z,11516
2019-03-27T08:41:18.892Z,11928
2019-03-27T08:42:29.028Z,12788
2019-03-27T08:43:39.021Z,13252
2019-03-27T08:44:48.908Z,13580
2019-03-27T08:45:59.039Z,13400
2019-03-27T08:47:09.173Z,13344
2019-03-27T08:48:19.345Z,14400
2019-03-27T08:49:30.058Z,16800
2019-03-27T08:50:40.176Z,14304
2019-03-27T08:51:50.430Z,14848
2019-03-27T08:53:00.579Z,14848
2019-03-27T08:54:10.802Z,13124
2019-03-27T08:55:21.283Z,11264
2019-03-27T08:56:31.155Z,11388
2019-03-27T08:57:41.289Z,11100
2019-03-27T08:58:51.423Z,11008
2019-03-27T09:00:02.770Z,11216
2019-03-27T09:01:13.010Z,12692
2019-03-27T09:02:23.153Z,13116
2019-03-27T09:03:33.269Z,12428
2019-03-27T09:04:43.426Z,12064
2019-03-27T09:05:53.558Z,12700
2019-03-27T09:07:03.913Z,17440
2019-03-27T09:08:14.058Z,12096
2019-03-27T09:09:24.180Z,10088
2019-03-27T09:10:34.305Z,10300
2019-03-27T09:11:44.438Z,11956
2019-03-27T09:12:54.568Z,11276
2019-03-27T09:14:04.715Z,10772
2019-03-27T09:15:14.858Z,10144
2019-03-27T09:16:25.038Z,10408
2019-03-27T09:17:35.172Z,12748
2019-03-27T09:18:45.298Z,12360
2019-03-27T09:19:55.423Z,11444
2019-03-27T09:21:05.540Z,14400
2019-03-27T09:22:15.686Z,15936
2019-03-27T09:23:25.850Z,16224
2019-03-27T09:24:35.965Z,13876
2019-03-27T09:25:46.124Z,15776
2019-03-27T09:26:56.247Z,17280
2019-03-27T09:28:06.368Z,15488
2019-03-27T09:29:16.495Z,15712
2019-03-27T09:30:26.652Z,15872
2019-03-27T09:31:49.458Z,16480
2019-03-27T09:32:59.652Z,16512
2019-03-27T09:34:09.778Z,16032
2019-03-27T09:35:19.903Z,17376
2019-03-27T09:36:30.046Z,13276
2019-03-27T09:37:40.167Z,14656
2019-03-27T09:38:49.935Z,15328
2019-03-27T09:39:59.790Z,14816
2019-03-27T09:41:09.954Z,13484
2019-03-27T09:42:20.069Z,12280
2019-03-27T09:43:30.195Z,10748
2019-03-27T09:44:40.323Z,8444
2019-03-27T09:45:50.466Z,7596
2019-03-27T09:47:00.570Z,8756
2019-03-27T09:48:10.690Z,10728
2019-03-27T09:49:20.849Z,11472
2019-03-27T09:50:30.972Z,12348
2019-03-27T09:51:40.849Z,13648
2019-03-27T09:52:50.974Z,13028
2019-03-27T09:54:00.836Z,16576
2019-03-27T09:55:10.981Z,15072
2019-03-27T09:56:26.798Z,15072
2019-03-27T09:57:36.923Z,16832
2019-03-27T09:58:46.880Z,19072
2019-03-27T09:59:57.018Z,19904
2019-03-27T10:01:07.154Z,24256
2019-03-27T10:02:17.301Z,20384
2019-03-27T10:03:27.438Z,18336
2019-03-27T10:04:37.552Z,15872
2019-03-27T10:05:47.672Z,14368
2019-03-27T10:06:57.777Z,13428
2019-03-27T10:08:07.893Z,14688
2019-03-27T10:09:18.007Z,15328
2019-03-27T10:10:28.138Z,14848
2019-03-27T10:11:38.264Z,15232
2019-03-27T10:12:48.397Z,14528
2019-03-27T10:13:58.536Z,13720
2019-03-27T10:15:08.661Z,14304
2019-03-27T10:16:18.789Z,14528
2019-03-27T10:17:28.908Z,15776
2019-03-27T10:18:39.026Z,16288
2019-03-27T10:20:02.399Z,14720
2019-03-27T10:21:12.927Z,13816
2019-03-27T10:22:23.133Z,12724
2019-03-27T10:23:33.012Z,14848
2019-03-27T10:24:43.141Z,15648
2019-03-27T10:25:53.256Z,15200
2019-03-27T10:27:03.381Z,12840
2019-03-27T10:28:13.500Z,12972
2019-03-27T10:29:23.637Z,12164
2019-03-27T10:30:33.989Z,12964
2019-03-27T10:31:44.141Z,18336
2019-03-27T10:32:54.270Z,23648
2019-03-27T10:34:04.419Z,20896
2019-03-27T10:35:14.191Z,16704
2019-03-27T10:36:24.332Z,14336
2019-03-27T10:37:34.208Z,14720
2019-03-27T10:38:46.653Z,16160
2019-03-27T10:39:56.782Z,17184
2019-03-27T10:41:06.910Z,18528
2019-03-27T10:42:17.140Z,18560
2019-03-27T10:43:27.259Z,19040
2019-03-27T10:44:37.377Z,17920
2019-03-27T10:45:47.497Z,11416
2019-03-27T10:46:57.619Z,8592
2019-03-27T10:48:07.734Z,9720
2019-03-27T10:49:17.886Z,10020
2019-03-27T10:50:27.759Z,8980
2019-03-27T10:51:37.878Z,10060
2019-03-27T10:52:48.061Z,13752
2019-03-27T10:53:58.199Z,19232
2019-03-27T10:55:08.331Z,23136
2019-03-27T10:56:18.459Z,25312
2019-03-27T10:57:28.336Z,20608
2019-03-27T10:58:38.474Z,13060
2019-03-27T10:59:48.581Z,11828
2019-03-27T11:00:58.809Z,11660
2019-03-27T11:02:08.921Z,10252
2019-03-27T11:03:18.769Z,7584
2019-03-27T11:04:28.886Z,6464
2019-03-27T11:05:39.031Z,6356
2019-03-27T11:06:49.164Z,6632
2019-03-27T11:07:59.306Z,8572
2019-03-27T11:09:09.427Z,12260
2019-03-27T11:10:19.291Z,13720
2019-03-27T11:11:29.442Z,11364
2019-03-27T11:12:39.558Z,11148
2019-03-27T11:13:49.479Z,10080
2019-03-27T11:14:59.601Z,9004
2019-03-27T11:16:09.707Z,10700
2019-03-27T11:17:19.831Z,14688
2019-03-27T11:18:30.019Z,16928
2019-03-27T11:19:41.085Z,32736
2019-03-27T11:20:51.197Z,31136
2019-03-27T11:22:01.325Z,12656
2019-03-27T11:23:11.450Z,9024
2019-03-27T11:24:21.598Z,8136
2019-03-27T11:25:35.471Z,8808
2019-03-27T11:26:45.604Z,10008
2019-03-27T11:27:55.475Z,11664
2019-03-27T11:29:05.588Z,12956
2019-03-27T11:30:15.707Z,14528
2019-03-27T11:31:25.830Z,16544
2019-03-27T11:32:35.982Z,20960
2019-03-27T11:33:46.314Z,35168
2019-03-27T11:34:56.433Z,32928
2019-03-27T11:36:06.595Z,47200
2019-03-27T11:37:16.705Z,31712
2019-03-27T11:38:26.842Z,35968
2019-03-27T11:39:36.968Z,22560
2019-03-27T11:40:47.090Z,25408
2019-03-27T11:42:00.442Z,41248
2019-03-27T11:43:10.751Z,25728
2019-03-27T11:44:20.906Z,42592
2019-03-27T11:45:31.035Z,20384
2019-03-27T11:46:41.173Z,33472
2019-03-27T11:47:51.314Z,20384
2019-03-27T11:49:01.439Z,17792
2019-03-27T11:50:11.547Z,16128
2019-03-27T11:51:21.662Z,14112
2019-03-27T11:52:34.562Z,12776
2019-03-27T11:53:44.689Z,11976
2019-03-27T11:54:54.809Z,10836
2019-03-27T11:56:08.096Z,11840
2019-03-27T11:57:17.960Z,16416
2019-03-27T11:58:28.083Z,29696
2019-03-27T11:59:37.627Z,24512
2019-03-27T12:01:02.395Z,29152
2019-03-27T12:02:12.500Z,19072
2019-03-27T12:03:22.624Z,11184
2019-03-27T12:04:32.754Z,9380
2019-03-27T12:05:45.573Z,9572
2019-03-27T12:06:56.045Z,9872
2019-03-27T12:08:05.908Z,9300
2019-03-27T12:09:16.025Z,8536
2019-03-27T12:10:26.156Z,8184
2019-03-27T12:11:36.317Z,7928
2019-03-27T12:12:48.148Z,8544
2019-03-27T12:13:58.521Z,10120
2019-03-27T12:15:08.641Z,12104
2019-03-27T12:16:18.749Z,13136
2019-03-27T12:17:28.888Z,12372
2019-03-27T12:18:39.604Z,12044
2019-03-27T12:19:49.721Z,12344
2019-03-27T12:21:06.523Z,13176
2019-03-27T12:22:16.676Z,14336
2019-03-27T12:23:26.869Z,16640
2019-03-27T12:24:36.993Z,26752
2019-03-27T12:25:47.189Z,23232
2019-03-27T12:26:57.322Z,17280
2019-03-27T12:28:07.466Z,18432
2019-03-27T12:29:20.666Z,19520
2019-03-27T12:30:30.801Z,41504
2019-03-27T12:31:40.965Z,19328
2019-03-27T12:32:51.140Z,17952
2019-03-27T12:34:01.279Z,23104
2019-03-27T12:35:11.127Z,46432
2019-03-27T12:36:21.256Z,24192
2019-03-27T12:37:31.391Z,14560
2019-03-27T12:38:41.536Z,9876
2019-03-27T12:39:51.639Z,8192
2019-03-27T12:41:01.813Z,7308
2019-03-27T12:42:11.943Z,7988
2019-03-27T12:43:22.257Z,9752
2019-03-27T12:44:32.422Z,12288
2019-03-27T12:45:42.542Z,16480
2019-03-27T12:46:54.351Z,44384
2019-03-27T12:48:04.469Z,38048
2019-03-27T12:49:14.580Z,49696
2019-03-27T12:50:24.737Z,23840
2019-03-27T12:51:34.873Z,20416
2019-03-27T12:52:45.005Z,16640
2019-03-27T12:53:54.876Z,15968
2019-03-27T12:55:05.181Z,63552
2019-03-27T12:56:19.331Z,62272
2019-03-27T12:57:30.638Z,57472
2019-03-27T12:58:40.939Z,32608
2019-03-27T12:59:51.087Z,14584
2019-03-27T13:01:01.220Z,9344
2019-03-27T13:02:11.342Z,58080
2019-03-27T13:03:21.473Z,57568
2019-03-27T13:04:33.712Z,57152
2019-03-27T13:05:43.946Z,56128
2019-03-27T13:06:54.065Z,56736
2019-03-27T13:08:04.187Z,59072
2019-03-27T13:09:15.244Z,56960
2019-03-27T13:10:25.372Z,55104
2019-03-27T13:11:36.684Z,55936
2019-03-27T13:12:46.995Z,57568
2019-03-27T13:13:57.155Z,59360
2019-03-27T13:15:07.307Z,56320
2019-03-27T13:16:17.653Z,53056
2019-03-27T13:17:27.838Z,55328
2019-03-27T13:18:37.994Z,58656
2019-03-27T13:19:48.134Z,53696
2019-03-27T13:20:58.281Z,55200
2019-03-27T13:22:08.421Z,10916
2019-03-27T13:23:18.674Z,14440
2019-03-27T13:24:29.169Z,50656
2019-03-27T13:25:39.300Z,50944
2019-03-27T13:26:49.438Z,54336
2019-03-27T13:27:59.561Z,28928
2019-03-27T13:29:09.702Z,17440
2019-03-27T13:30:19.872Z,37280
2019-03-27T13:31:30.014Z,36864
2019-03-27T13:32:40.152Z,35648
2019-03-27T13:33:52.909Z,24576
2019-03-27T13:35:03.036Z,26848
2019-03-27T13:36:13.196Z,27712
2019-03-27T13:37:23.314Z,38496
2019-03-27T13:38:33.463Z,26208
2019-03-27T13:39:42.999Z,23648
2019-03-27T13:40:53.136Z,22848
2019-03-27T13:42:03.020Z,23744
2019-03-27T13:43:13.143Z,22144
2019-03-27T13:44:36.240Z,20160
2019-03-27T13:45:46.945Z,17504
2019-03-27T13:46:57.455Z,15904
2019-03-27T13:48:07.860Z,16480
2019-03-27T13:49:17.999Z,14464
2019-03-27T13:50:28.145Z,13792
2019-03-27T13:51:47.958Z,14240
2019-03-27T13:52:58.110Z,15200
2019-03-27T13:54:08.254Z,15872
2019-03-27T13:55:18.403Z,16928
2019-03-27T13:56:28.554Z,15872
2019-03-27T13:57:38.725Z,14784
2019-03-27T13:58:48.886Z,14464
2019-03-27T13:59:59.050Z,14592
2019-03-27T14:01:12.938Z,14208
2019-03-27T14:02:23.403Z,14048
2019-03-27T14:03:33.553Z,15648
2019-03-27T14:04:43.693Z,19552
2019-03-27T14:05:53.839Z,28288
2019-03-27T14:07:03.977Z,27520
2019-03-27T14:08:14.130Z,28480
2019-03-27T14:09:24.263Z,35904
2019-03-27T14:10:34.386Z,39712
2019-03-27T14:11:44.521Z,42592
2019-03-27T14:12:54.682Z,31072
2019-03-27T14:14:18.002Z,22720
2019-03-27T14:15:28.165Z,25056
2019-03-27T14:16:38.331Z,40832
2019-03-27T14:17:48.550Z,44448
2019-03-27T14:18:58.689Z,50688
2019-03-27T14:20:08.829Z,47520
2019-03-27T14:21:18.989Z,47680
2019-03-27T14:22:31.165Z,25760
2019-03-27T14:23:41.296Z,43008
2019-03-27T14:24:51.431Z,31904
2019-03-27T14:26:01.615Z,44960
2019-03-27T14:27:11.756Z,42080
2019-03-27T14:28:21.896Z,38400
2019-03-27T14:29:31.766Z,41696
2019-03-27T14:30:41.878Z,43104
2019-03-27T14:31:52.041Z,44288
2019-03-27T14:33:01.923Z,43808
2019-03-27T14:34:12.081Z,41344
2019-03-27T14:35:22.294Z,39968
2019-03-27T14:36:32.425Z,33920
2019-03-27T14:37:42.560Z,31744
2019-03-27T14:38:52.681Z,10996
2019-03-27T14:40:02.836Z,7616
2019-03-27T14:41:12.962Z,7036
2019-03-27T14:42:23.105Z,6904
2019-03-27T14:43:34.532Z,7472
2019-03-27T14:44:44.671Z,18240
2019-03-27T14:45:54.797Z,30208
2019-03-27T14:47:04.947Z,37216
2019-03-27T14:48:15.090Z,34944
2019-03-27T14:49:25.238Z,9304
2019-03-27T14:50:35.378Z,36288
2019-03-27T14:51:45.550Z,11624
2019-03-27T14:52:55.652Z,21664
2019-03-27T14:54:05.812Z,9848
2019-03-27T14:55:15.949Z,11204
2019-03-27T14:56:26.095Z,9136
2019-03-27T14:57:36.301Z,9628
2019-03-27T14:58:46.442Z,9936
2019-03-27T14:59:56.634Z,27584
2019-03-27T15:01:06.767Z,36096
2019-03-27T15:02:16.918Z,30176
2019-03-27T15:03:27.050Z,19776
2019-03-27T15:04:37.185Z,20992
2019-03-27T15:05:47.344Z,11512
2019-03-27T15:06:57.224Z,9352
2019-03-27T15:08:09.145Z,8640
2019-03-27T15:09:19.462Z,8696
2019-03-27T15:10:29.101Z,8488
2019-03-27T15:11:39.226Z,8268
2019-03-27T15:12:49.366Z,7988
2019-03-27T15:13:59.517Z,7920
2019-03-27T15:15:09.685Z,8580
2019-03-27T15:16:19.805Z,9372
2019-03-27T15:17:29.927Z,9592
2019-03-27T15:18:40.090Z,9340
2019-03-27T15:19:50.239Z,8760
2019-03-27T15:21:00.402Z,8732
2019-03-27T15:22:24.045Z,10068
2019-03-27T15:23:33.819Z,15648
2019-03-27T15:24:43.947Z,11912
2019-03-27T15:25:54.089Z,17184
2019-03-27T15:27:04.237Z,15360
2019-03-27T15:28:14.416Z,9256
2019-03-27T15:29:24.552Z,6472
2019-03-27T15:30:34.527Z,5844
2019-03-27T15:31:44.660Z,5764
2019-03-27T15:32:54.805Z,5672
2019-03-27T15:34:04.958Z,5700
2019-03-27T15:35:15.111Z,6148
2019-03-27T15:36:25.265Z,6928
2019-03-27T15:37:35.515Z,6820
2019-03-27T15:38:45.648Z,6716
2019-03-27T15:39:55.778Z,6460
2019-03-27T15:41:05.676Z,6072
2019-03-27T15:42:16.667Z,6176
2019-03-27T15:43:26.824Z,6380
2019-03-27T15:44:37.075Z,6396
2019-03-27T15:45:47.238Z,6356
2019-03-27T15:46:57.396Z,5972
2019-03-27T15:48:08.062Z,5436
2019-03-27T15:49:18.190Z,4848
2019-03-27T15:50:28.369Z,4344
2019-03-27T15:51:38.620Z,4076
2019-03-27T15:52:48.792Z,4136
2019-03-27T15:53:58.939Z,4228
2019-03-27T15:55:09.105Z,4340
2019-03-27T15:56:19.284Z,4344